createdAt,value
2023-01-21T00:02:48.433Z,101089.41
2023-01-21T00:07:52.885Z,101094.31
2023-01-21T00:12:55.936Z,101090.84
2023-01-21T00:17:59.031Z,101088.22
2023-01-21T00:23:03.883Z,101094.34
2023-01-21T00:28:07.019Z,101105.47
2023-01-21T00:33:10.150Z,101110.53
2023-01-21T00:38:14.666Z,101116.63
2023-01-21T00:43:17.904Z,101116.59
2023-01-21T00:48:21.634Z,101113.16
2023-01-21T00:53:26.398Z,101126.22
2023-01-21T00:58:29.777Z,101123.63
2023-01-21T01:03:33.898Z,101133.69
2023-01-21T01:08:38.518Z,101140.75
2023-01-21T01:13:42.112Z,101140.13
2023-01-21T01:18:45.232Z,101142.75
2023-01-21T01:23:52.184Z,101139.38
2023-01-21T01:28:55.389Z,101151.34
2023-01-21T01:33:58.877Z,101150.50
2023-01-21T01:39:04.035Z,101148.81
2023-01-21T01:44:45.523Z,101157.28
2023-01-21T01:49:49.897Z,101152.41
2023-01-21T01:54:58.619Z,101162.78
2023-01-21T02:00:04.224Z,101161.19
2023-01-21T02:05:10.955Z,101160.63
2023-01-21T02:10:16.577Z,101163.47
2023-01-21T02:15:21.569Z,101168.53
2023-01-21T02:21:06.672Z,101172.03
2023-01-21T02:26:38.855Z,101174.84
2023-01-21T02:32:10.854Z,101172.94
2023-01-21T02:37:24.061Z,101171.44
2023-01-21T02:42:34.291Z,101169.69
2023-01-21T02:47:46.279Z,101175.84
2023-01-21T02:52:57.958Z,101186.03
2023-01-21T02:58:03.953Z,101192.94
2023-01-21T03:03:46.864Z,101198.03
2023-01-21T03:08:55.695Z,101200.94
2023-01-21T03:14:23.230Z,101211.41
2023-01-21T03:19:34.938Z,101209.66
2023-01-21T03:24:41.662Z,101218.38
2023-01-21T03:29:47.791Z,101209.81
2023-01-21T03:34:56.242Z,101207.38
2023-01-21T03:40:12.462Z,101216.91
2023-01-21T03:45:15.865Z,101217.88
2023-01-21T03:50:23.823Z,101220.00
2023-01-21T03:55:28.389Z,101220.88
2023-01-21T04:00:31.737Z,101224.47
2023-01-21T04:05:36.104Z,101224.81
2023-01-21T04:10:41.039Z,101230.72
2023-01-21T04:15:44.335Z,101228.16
2023-01-21T04:20:47.804Z,101233.34
2023-01-21T04:25:53.063Z,101235.06
2023-01-21T04:30:56.916Z,101233.31
2023-01-21T04:36:01.046Z,101245.28
2023-01-21T04:41:05.839Z,101247.13
2023-01-21T04:46:08.931Z,101246.13
2023-01-21T04:51:12.137Z,101252.25
2023-01-21T04:56:16.916Z,101265.97
2023-01-21T05:01:20.075Z,101269.44
2023-01-21T05:06:23.346Z,101271.31
2023-01-21T05:11:27.890Z,101288.34
2023-01-21T05:16:31.308Z,101295.28
2023-01-21T05:21:34.744Z,101291.00
2023-01-21T05:26:39.551Z,101295.41
2023-01-21T05:31:43.603Z,101302.19
2023-01-21T05:36:46.915Z,101315.09
2023-01-21T05:41:51.611Z,101318.38
2023-01-21T05:46:54.821Z,101307.25
2023-01-21T05:51:58.165Z,101304.66
2023-01-21T05:57:02.813Z,101310.59
2023-01-21T06:02:07.043Z,101324.38
2023-01-21T06:07:11.378Z,101316.53
2023-01-21T06:12:15.814Z,101318.22
2023-01-21T06:17:19.043Z,101324.09
2023-01-21T06:22:22.377Z,101321.50
2023-01-21T06:27:26.854Z,101318.00
2023-01-21T06:32:30.138Z,101319.66
2023-01-21T06:37:33.234Z,101316.09
2023-01-21T06:42:37.873Z,101316.91
2023-01-21T06:47:42.789Z,101328.06
2023-01-21T06:52:47.859Z,101327.88
2023-01-21T06:57:52.394Z,101324.41
2023-01-21T07:02:57.959Z,101321.66
2023-01-21T07:08:01.747Z,101321.66
2023-01-21T07:13:06.636Z,101337.97
2023-01-21T07:18:09.875Z,101340.44
2023-01-21T07:23:13.100Z,101350.69
2023-01-21T07:28:18.156Z,101344.47
2023-01-21T07:33:21.447Z,101348.41
2023-01-21T07:38:24.864Z,101350.03
2023-01-21T07:43:29.400Z,101345.59
2023-01-21T07:48:32.523Z,101351.44
2023-01-21T07:53:35.939Z,101349.50
2023-01-21T07:58:41.091Z,101340.88
2023-01-21T08:03:44.463Z,101344.47
2023-01-21T08:08:47.700Z,101350.34
2023-01-21T08:13:55.852Z,101352.75
2023-01-21T08:18:59.263Z,101357.94
2023-01-21T08:24:03.694Z,101345.16
2023-01-21T08:29:09.017Z,101351.94
2023-01-21T08:34:12.374Z,101346.88
2023-01-21T08:39:16.745Z,101348.56
2023-01-21T08:44:21.240Z,101348.50
2023-01-21T08:49:24.440Z,101358.78
2023-01-21T08:54:27.971Z,101358.72
2023-01-21T08:59:32.647Z,101355.22
2023-01-21T09:04:35.909Z,101360.22
2023-01-21T09:09:39.239Z,101367.75
2023-01-21T09:14:43.986Z,101369.22
2023-01-21T09:19:47.160Z,101363.25
2023-01-21T09:24:50.402Z,101370.88
2023-01-21T09:29:55.628Z,101366.41
2023-01-21T09:34:58.738Z,101367.13
2023-01-21T09:40:02.159Z,101369.47
2023-01-21T09:45:07.847Z,101379.69
2023-01-21T09:50:16.486Z,101378.69
2023-01-21T09:55:21.487Z,101376.84
2023-01-21T10:00:34.968Z,101384.19
2023-01-21T10:05:54.579Z,101379.06
2023-01-21T10:11:08.828Z,101381.38
2023-01-21T10:16:23.163Z,101389.78
2023-01-21T10:21:34.401Z,101384.56
2023-01-21T10:26:38.146Z,101380.06
2023-01-21T10:31:46.797Z,101389.53
2023-01-21T10:37:07.157Z,101382.66
2023-01-21T10:42:51.394Z,101385.66
2023-01-21T10:48:05.620Z,101388.16
2023-01-21T10:53:20.378Z,101379.56
2023-01-21T10:58:31.662Z,101375.81
2023-01-21T11:03:41.632Z,101372.16
2023-01-21T11:08:48.512Z,101376.38
2023-01-21T11:13:51.860Z,101372.00
2023-01-21T11:19:01.642Z,101368.25
2023-01-21T11:24:20.608Z,101360.28
2023-01-21T11:29:25.691Z,101366.81
2023-01-21T11:34:31.191Z,101353.09
2023-01-21T11:39:38.311Z,101343.25
2023-01-21T11:44:53.193Z,101343.25
2023-01-21T11:50:04.310Z,101339.72
2023-01-21T11:55:19.942Z,101325.69
2023-01-21T12:00:27.146Z,101325.09
2023-01-21T12:05:34.735Z,101321.97
2023-01-21T12:10:45.571Z,101315.63
2023-01-21T12:16:18.003Z,101305.63
2023-01-21T12:21:36.360Z,101290.56
2023-01-21T12:26:45.519Z,101299.50
2023-01-21T12:31:54.636Z,101284.22
2023-01-21T12:37:04.734Z,101285.22
2023-01-21T12:42:11.810Z,101286.88
2023-01-21T12:47:30.243Z,101278.16
2023-01-21T12:52:43.113Z,101275.44
2023-01-21T12:57:53.966Z,101272.53
2023-01-21T13:03:11.379Z,101268.84
2023-01-21T13:08:32.733Z,101269.47
2023-01-21T13:13:41.827Z,101267.38
2023-01-21T13:18:51.662Z,101272.38
2023-01-21T13:24:09.820Z,101255.03
2023-01-21T13:29:20.028Z,101244.66
2023-01-21T13:34:30.927Z,101249.66
2023-01-21T13:39:45.498Z,101254.88
2023-01-21T13:45:08.248Z,101255.03
2023-01-21T13:50:25.393Z,101270.81
2023-01-21T13:55:41.319Z,101232.47
2023-01-21T14:00:54.203Z,101251.69
2023-01-21T14:06:05.715Z,101237.88
2023-01-21T14:11:18.677Z,101245.66
2023-01-21T14:16:57.647Z,101237.06
2023-01-21T14:22:25.052Z,101226.06
2023-01-21T14:27:39.120Z,101228.72
2023-01-21T14:32:47.232Z,101209.97
2023-01-21T14:37:59.022Z,101206.53
2023-01-21T14:43:06.754Z,101211.19
2023-01-21T14:48:31.942Z,101201.81
2023-01-21T14:53:44.719Z,101212.28
2023-01-21T14:58:51.409Z,101200.31
2023-01-21T15:03:54.780Z,101190.88
2023-01-21T15:09:00.546Z,101188.47
2023-01-21T15:14:14.408Z,101182.53
2023-01-21T15:19:29.865Z,101175.50
2023-01-21T15:24:40.200Z,101163.34
2023-01-21T15:29:47.595Z,101152.97
2023-01-21T15:34:55.300Z,101134.97
2023-01-21T15:40:00.947Z,101134.28
2023-01-21T15:45:24.828Z,101139.34
2023-01-21T15:50:32.286Z,101122.28
2023-01-21T15:56:03.281Z,101126.09
2023-01-21T16:01:15.779Z,101114.41
2023-01-21T16:06:24.015Z,101116.53
2023-01-21T16:11:42.232Z,101115.19
2023-01-21T16:16:59.567Z,101118.97
2023-01-21T16:22:16.871Z,101101.94
2023-01-21T16:27:22.411Z,101105.59
2023-01-21T16:32:27.324Z,101102.38
2023-01-21T16:37:31.924Z,101098.03
2023-01-21T16:42:37.576Z,101094.81
2023-01-21T16:47:42.351Z,101105.28
2023-01-21T16:52:46.200Z,101103.72
2023-01-21T16:57:50.849Z,101098.59
2023-01-21T17:02:55.711Z,101098.66
2023-01-21T17:08:01.866Z,101099.56
2023-01-21T17:13:12.275Z,101102.34
2023-01-21T17:18:22.875Z,101104.06
2023-01-21T17:23:28.595Z,101097.50
2023-01-21T17:28:34.260Z,101098.56
2023-01-21T17:33:38.960Z,101109.84
2023-01-21T17:38:47.624Z,101115.25
2023-01-21T17:43:53.425Z,101104.16
2023-01-21T17:49:06.142Z,101112.72
2023-01-21T17:54:20.768Z,101115.25
2023-01-21T17:59:39.290Z,101113.59
2023-01-21T18:04:44.625Z,101116.22
2023-01-21T18:09:48.012Z,101113.75
2023-01-21T18:14:51.113Z,101121.34
2023-01-21T18:19:57.795Z,101127.41
2023-01-21T18:25:02.992Z,101114.53
2023-01-21T18:30:14.210Z,101105.13
2023-01-21T18:35:20.685Z,101126.66
2023-01-21T18:40:25.965Z,101117.06
2023-01-21T18:45:30.110Z,101107.56
2023-01-21T18:50:34.830Z,101108.41
2023-01-21T18:55:38.078Z,101101.59
2023-01-21T19:00:42.044Z,101107.69
2023-01-21T19:05:48.376Z,101101.63
2023-01-21T19:10:51.753Z,101093.84
2023-01-21T19:15:55.052Z,101100.69
2023-01-21T19:20:59.581Z,101116.22
2023-01-21T19:26:05.631Z,101110.03
2023-01-21T19:31:08.926Z,101104.94
2023-01-21T19:36:17.609Z,101104.06
2023-01-21T19:41:21.182Z,101101.72
2023-01-21T19:46:28.928Z,101103.47
2023-01-21T19:51:34.305Z,101105.06
2023-01-21T19:56:38.109Z,101102.41
2023-01-21T20:01:42.860Z,101115.38
2023-01-21T20:06:49.123Z,101127.41
2023-01-21T20:11:52.446Z,101112.69
2023-01-21T20:16:58.278Z,101122.16
2023-01-21T20:22:03.223Z,101134.28
2023-01-21T20:27:09.362Z,101140.19
2023-01-21T20:32:21.920Z,101149.66
2023-01-21T20:37:34.102Z,101151.94
2023-01-21T20:42:37.555Z,101152.72
2023-01-21T20:47:49.722Z,101156.16
2023-01-21T20:52:56.596Z,101165.47
2023-01-21T20:58:01.051Z,101162.09
2023-01-21T21:03:04.627Z,101162.09
2023-01-21T21:08:16.219Z,101161.19
2023-01-21T21:13:19.928Z,101161.16
2023-01-21T21:18:23.367Z,101166.38
2023-01-21T21:23:28.279Z,101173.94
2023-01-21T21:28:31.466Z,101173.09
2023-01-21T21:33:34.504Z,101186.13
2023-01-21T21:38:39.658Z,101188.66
2023-01-21T21:43:43.698Z,101191.25
2023-01-21T21:48:46.893Z,101191.25
2023-01-21T21:53:51.839Z,101203.31
2023-01-21T21:58:56.205Z,101203.25
2023-01-21T22:04:01.644Z,101186.91
2023-01-21T22:09:06.417Z,101194.59
2023-01-21T22:14:15.780Z,101204.16
2023-01-21T22:19:18.979Z,101205.75
2023-01-21T22:24:28.103Z,101205.75
2023-01-21T22:29:31.855Z,101213.59
2023-01-21T22:34:35.276Z,101223.84
2023-01-21T22:39:39.747Z,101221.16
2023-01-21T22:44:42.797Z,101229.81
2023-01-21T22:49:48.183Z,101232.28
2023-01-21T22:54:52.732Z,101222.84
2023-01-21T22:59:56.044Z,101223.56
2023-01-21T23:04:59.713Z,101224.56
2023-01-21T23:10:04.413Z,101228.91
2023-01-21T23:15:10.660Z,101226.38
2023-01-21T23:20:14.533Z,101231.53
2023-01-21T23:25:23.469Z,101226.22
2023-01-21T23:30:27.038Z,101226.88
2023-01-21T23:35:34.202Z,101227.75
2023-01-21T23:40:39.132Z,101225.13
2023-01-21T23:45:42.286Z,101227.66
2023-01-21T23:50:45.596Z,101224.22
2023-01-21T23:55:50.040Z,101226.88
